Time;durP1;ratioP1;P1;durP2;ratioP2;P2;SDS_P1;SDS_P2;PMS_P1;PMS_P2;Temp;Humidity;BMP_temperature;BMP_pressure;BME280_temperature;BME280_humidity;BME280_pressure;Samples;Min_cycle;Max_cycle;Signal;HPM_P1;HPM_P2
2022/02/22 00:02:16;;;;;;;;;;;;;;;3.18;75.18;99087.14;1666383;84;26112;-64
2022/02/22 00:04:43;;;;;;;;;;;;;;;3.19;75.15;99110.52;1670748;84;83923;-64
2022/02/22 00:07:11;;;;;;;;;;;;;;;3.21;75.24;99099.40;1689783;83;27465;-63
2022/02/22 00:09:37;;;;;;;;;;;;;;;3.21;75.34;99101.59;1665531;84;84894;-63
2022/02/22 00:12:04;;;;;;;;;;;;;;;3.22;75.31;99097.16;1666443;84;26445;-63
2022/02/22 00:14:30;;;;;;;;;;;;;;;3.22;75.32;99111.72;1663431;84;26031;-63
2022/02/22 00:16:55;;;;;;;;;;;;;;;3.24;75.46;99127.09;1667518;84;83434;-63
2022/02/22 00:19:25;;;;;;;;;;;;;;;3.24;75.41;99150.45;1671089;84;26912;-63
2022/02/22 00:21:52;;;;;;;;;;;;;;;3.26;75.42;99117.30;1662607;84;83912;-64
2022/02/22 00:24:18;;;;;;;;;;;;;;;3.25;75.41;99133.64;1667015;84;26590;-64
2022/02/22 00:26:45;;;;;;;;;;;;;;;3.29;75.42;99113.67;1669840;84;28001;-63
2022/02/22 00:29:12;;;;;;;;;;;;;;;3.28;75.43;99136.64;1665526;84;84832;-63
2022/02/22 00:31:37;;;;;;;;;;;;;;;3.31;75.44;99135.20;1668379;84;27474;-63
2022/02/22 00:34:04;;;;;;;;;;;;;;;3.33;75.43;99132.49;1667389;84;83619;-64
2022/02/22 00:36:30;;;;;;;;;;;;;;;3.35;75.46;99131.97;1668262;84;26251;-63
2022/02/22 00:38:57;;;;;;;;;;;;;;;3.35;75.49;99169.91;1668260;84;84554;-65
2022/02/22 00:41:23;;;;;;;;;;;;;;;3.36;75.48;99154.89;1666111;84;26274;-65
2022/02/22 00:43:49;;;;;;;;;;;;;;;3.39;75.53;99157.42;1659728;84;29606;-63
2022/02/22 00:46:14;;;;;;;;;;;;;;;3.40;75.51;99145.91;1667767;84;84460;-63
2022/02/22 00:48:40;;;;;;;;;;;;;;;3.43;75.50;99157.70;1665983;84;26544;-63
2022/02/22 00:51:06;;;;;;;;;;;;;;;3.36;75.49;99129.73;1670558;84;83829;-63
2022/02/22 00:53:31;;;;;;;;;;;;;;;3.46;75.56;99158.45;1666617;84;25821;-63
2022/02/22 00:55:57;;;;;;;;;;;;;;;3.48;75.50;99161.04;1667905;84;29690;-63
2022/02/22 00:58:23;;;;;;;;;;;;;;;3.48;75.54;99151.31;1667340;84;83611;-63
2022/02/22 01:00:49;;;;;;;;;;;;;;;3.48;75.53;99156.61;1669682;84;26438;-63
2022/02/22 01:03:14;;;;;;;;;;;;;;;3.47;75.53;99168.13;1665583;84;83879;-64
2022/02/22 01:05:40;;;;;;;;;;;;;;;3.48;75.56;99180.91;1668627;84;26498;-64
2022/02/22 01:08:06;;;;;;;;;;;;;;;3.49;75.55;99168.06;1665492;84;26615;-63
2022/02/22 01:10:32;;;;;;;;;;;;;;;3.50;75.58;99191.84;1667812;84;84847;-63
2022/02/22 01:12:58;;;;;;;;;;;;;;;3.49;75.63;99179.52;1667605;84;25833;-63
2022/02/22 01:15:24;;;;;;;;;;;;;;;3.49;75.66;99186.15;1668793;84;84809;-63
2022/02/22 01:17:50;;;;;;;;;;;;;;;3.49;75.71;99190.12;1670154;84;25794;-63
2022/02/22 01:20:16;;;;;;;;;;;;;;;3.51;75.74;99193.58;1673117;84;27373;-63
2022/02/22 01:22:43;;;;;;;;;;;;;;;3.53;75.81;99197.48;1669298;84;84949;-63
2022/02/22 01:25:10;;;;;;;;;;;;;;;3.49;75.80;99186.15;1673450;84;26577;-64
2022/02/22 01:27:37;;;;;;;;;;;;;;;3.51;75.97;99228.02;1671880;84;83769;-63
2022/02/22 01:30:08;;;;;;;;;;;;;;;3.50;75.97;99193.17;1671382;84;26213;-63
2022/02/22 01:32:34;;;;;;;;;;;;;;;3.52;76.02;99216.95;1672750;84;27445;-63
2022/02/22 01:34:59;;;;;;;;;;;;;;;3.51;76.08;99205.50;1666664;84;83595;-64
2022/02/22 01:37:25;;;;;;;;;;;;;;;3.53;76.11;99208.09;1665826;84;26558;-64
2022/02/22 01:39:51;;;;;;;;;;;;;;;3.53;76.12;99224.84;1669146;84;84369;-63
2022/02/22 01:42:16;;;;;;;;;;;;;;;3.54;76.26;99244.25;1664435;84;25880;-63
2022/02/22 01:44:47;;;;;;;;;;;;;;;3.55;76.31;99222.14;1667979;84;27434;-64
2022/02/22 01:47:16;;;;;;;;;;;;;;;3.55;76.33;99236.25;1665958;84;84247;-63
2022/02/22 01:49:41;;;;;;;;;;;;;;;3.56;76.29;99231.35;1672428;84;25820;-64
2022/02/22 01:52:06;;;;;;;;;;;;;;;3.55;76.33;99239.36;1664036;84;83716;-63
2022/02/22 01:54:32;;;;;;;;;;;;;;;3.56;76.38;99242.41;1671947;84;25704;-63
2022/02/22 01:56:58;;;;;;;;;;;;;;;3.57;76.44;99249.44;1664869;84;83712;-64
2022/02/22 01:59:23;;;;;;;;;;;;;;;3.58;76.58;99256.46;1666588;84;26384;-63
2022/02/22 02:01:49;;;;;;;;;;;;;;;3.58;76.52;99265.27;1666971;84;26179;-64
2022/02/22 02:04:16;;;;;;;;;;;;;;;3.57;76.50;99262.22;1671515;84;83606;-63
2022/02/22 02:06:42;;;;;;;;;;;;;;;3.57;76.57;99251.63;1668110;84;26356;-63
2022/02/22 02:09:09;;;;;;;;;;;;;;;3.55;76.66;99262.73;1664858;84;83711;-63
2022/02/22 02:11:47;;;;;;;;;;;;;;;3.61;76.73;99264.30;1668430;84;26504;-63
2022/02/22 02:14:14;;;;;;;;;;;;;;;3.63;76.75;99266.42;1670592;84;26704;-63
2022/02/22 02:16:40;;;;;;;;;;;;;;;3.62;76.85;99279.73;1669776;84;84696;-63
2022/02/22 02:19:08;;;;;;;;;;;;;;;3.62;76.80;99288.55;1670053;84;25752;-63
2022/02/22 02:21:34;;;;;;;;;;;;;;;3.65;76.84;99282.27;1664602;84;83867;-63
2022/02/22 02:24:12;;;;;;;;;;;;;;;3.57;76.85;99265.33;1668312;84;26591;-63
2022/02/22 02:26:39;;;;;;;;;;;;;;;3.67;76.93;99288.38;1638556;84;25788;-63
2022/02/22 02:29:12;;;;;;;;;;;;;;;3.68;76.91;99308.66;1669914;84;83803;-63
2022/02/22 02:31:41;;;;;;;;;;;;;;;3.68;77.04;99290.97;1663482;84;25789;-63
2022/02/22 02:34:08;;;;;;;;;;;;;;;3.70;77.00;99281.64;1668444;84;83670;-63
2022/02/22 02:36:34;;;;;;;;;;;;;;;3.71;77.11;99295.29;1668377;84;25812;-63
2022/02/22 02:39:02;;;;;;;;;;;;;;;3.73;77.16;99315.52;1668055;84;84463;-64
2022/02/22 02:41:28;;;;;;;;;;;;;;;3.71;77.14;99305.89;1669092;84;26085;-63
2022/02/22 02:43:53;;;;;;;;;;;;;;;3.69;77.31;99343.50;1672492;84;25822;-63
2022/02/22 02:46:19;;;;;;;;;;;;;;;3.75;77.31;99310.16;1641454;84;84682;-63
2022/02/22 02:48:45;;;;;;;;;;;;;;;3.74;77.29;99319.03;1671783;84;25801;-63
2022/02/22 02:51:10;;;;;;;;;;;;;;;3.72;77.28;99320.41;1671747;84;83884;-63
2022/02/22 02:53:36;;;;;;;;;;;;;;;3.75;77.46;99319.43;1668614;84;25868;-63
2022/02/22 02:56:02;;;;;;;;;;;;;;;3.72;77.43;99318.22;1675366;84;25823;-63
2022/02/22 02:58:28;;;;;;;;;;;;;;;3.71;77.38;99316.49;1665779;84;83728;-63
2022/02/22 03:00:54;;;;;;;;;;;;;;;3.70;77.50;99321.39;1666266;84;25705;-63
2022/02/22 03:03:19;;;;;;;;;;;;;;;3.74;77.64;99333.60;1666621;84;83789;-63
2022/02/22 03:05:45;;;;;;;;;;;;;;;3.75;77.63;99347.26;1670161;84;25882;-63
2022/02/22 03:08:11;;;;;;;;;;;;;;;3.78;77.76;99328.59;1664739;84;26598;-63
2022/02/22 03:10:36;;;;;;;;;;;;;;;3.82;77.76;99337.70;1669519;84;84556;-65
2022/02/22 03:13:02;;;;;;;;;;;;;;;3.84;77.75;99346.92;1667722;84;25780;-63
2022/02/22 03:15:28;;;;;;;;;;;;;;;3.82;77.69;99360.23;1671146;84;84955;-63
2022/02/22 03:17:53;;;;;;;;;;;;;;;3.84;77.69;99352.22;1667299;84;25792;-63
2022/02/22 03:20:19;;;;;;;;;;;;;;;3.82;77.68;99352.73;1672417;84;25694;-63
2022/02/22 03:22:45;;;;;;;;;;;;;;;3.84;77.74;99362.83;1666939;84;83581;-63
2022/02/22 03:25:14;;;;;;;;;;;;;;;3.84;77.75;99384.03;1671294;84;26055;-63
2022/02/22 03:27:39;;;;;;;;;;;;;;;3.84;77.74;99376.94;1666341;84;83729;-63
2022/02/22 03:30:07;;;;;;;;;;;;;;;3.87;77.81;99378.62;1664571;84;26072;-63
2022/02/22 03:32:32;;;;;;;;;;;;;;;3.87;77.85;99387.89;1659981;84;25859;-63
2022/02/22 03:34:58;;;;;;;;;;;;;;;3.90;77.86;99416.94;1671975;84;83949;-63
2022/02/22 03:37:24;;;;;;;;;;;;;;;3.89;77.88;99394.88;1666589;84;26569;-64
2022/02/22 03:39:49;;;;;;;;;;;;;;;3.91;77.92;99390.38;1663538;84;83675;-64
2022/02/22 03:42:15;;;;;;;;;;;;;;;3.94;77.94;99393.84;1662330;84;25755;-63
2022/02/22 03:44:41;;;;;;;;;;;;;;;3.94;77.95;99401.33;1670863;84;25942;-63
2022/02/22 03:47:06;;;;;;;;;;;;;;;3.96;77.96;99407.44;1668729;84;83999;-63
2022/02/22 03:49:32;;;;;;;;;;;;;;;3.97;77.95;99409.63;1672033;84;27162;-65
2022/02/22 03:51:58;;;;;;;;;;;;;;;3.98;78.00;99419.31;1674180;84;83609;-63
2022/02/22 03:54:23;;;;;;;;;;;;;;;3.97;78.03;99431.70;1664297;84;25844;-63
2022/02/22 03:56:49;;;;;;;;;;;;;;;3.99;78.02;99441.80;1664661;84;25719;-63
2022/02/22 03:59:15;;;;;;;;;;;;;;;4.01;78.16;99457.65;1667409;84;83568;-63
2022/02/22 04:01:41;;;;;;;;;;;;;;;4.02;78.18;99463.36;1669641;84;25905;-63
2022/02/22 04:04:06;;;;;;;;;;;;;;;4.01;78.19;99458.52;1678071;83;84935;-63
2022/02/22 04:06:32;;;;;;;;;;;;;;;4.02;78.17;99446.98;1700826;82;25881;-63
2022/02/22 04:08:58;;;;;;;;;;;;;;;4.05;78.15;99476.05;1687834;83;83611;-64
2022/02/22 04:11:23;;;;;;;;;;;;;;;4.06;78.24;99453.05;1690564;83;25964;-63
2022/02/22 04:13:49;;;;;;;;;;;;;;;4.04;78.28;99457.08;1694105;83;25844;-63
2022/02/22 04:16:15;;;;;;;;;;;;;;;4.02;78.28;99472.64;1695093;83;83991;-63
2022/02/22 04:18:41;;;;;;;;;;;;;;;4.03;78.36;99463.30;1694510;83;28201;-63
2022/02/22 04:21:06;;;;;;;;;;;;;;;4.03;78.39;99485.84;1695946;83;83779;-63
2022/02/22 04:23:32;;;;;;;;;;;;;;;4.04;78.41;99473.45;1695204;83;27455;-64
2022/02/22 04:25:58;;;;;;;;;;;;;;;4.04;78.47;99479.62;1690508;83;26502;-64
2022/02/22 04:28:24;;;;;;;;;;;;;;;4.00;78.41;99474.02;1691531;83;83953;-63
2022/02/22 04:30:49;;;;;;;;;;;;;;;3.99;78.55;99505.42;1691787;83;26435;-63
2022/02/22 04:33:15;;;;;;;;;;;;;;;4.00;78.63;99484.63;1694424;83;83740;-63
2022/02/22 04:35:41;;;;;;;;;;;;;;;3.96;78.70;99501.55;1699455;83;27450;-63
2022/02/22 04:38:06;;;;;;;;;;;;;;;3.99;78.71;99497.47;1696172;83;26220;-63
2022/02/22 04:40:32;;;;;;;;;;;;;;;4.00;78.76;99510.27;1689388;83;83628;-63
2022/02/22 04:42:58;;;;;;;;;;;;;;;4.00;78.86;99506.29;1693603;83;26208;-63
2022/02/22 04:45:23;;;;;;;;;;;;;;;4.02;79.12;99526.53;1693000;82;83863;-63
2022/02/22 04:47:49;;;;;;;;;;;;;;;4.02;78.92;99507.11;1693100;83;27411;-64
2022/02/22 04:50:21;;;;;;;;;;;;;;;4.03;79.00;99509.70;1696362;83;28238;-63
2022/02/22 04:52:42;;;;;;;;;;;;;;;4.02;79.03;99526.98;1691517;83;83445;-64
2022/02/22 04:55:09;;;;;;;;;;;;;;;4.01;79.13;99531.88;1688942;83;26123;-63
2022/02/22 04:57:35;;;;;;;;;;;;;;;3.99;79.15;99534.59;1689972;83;83886;-63
2022/02/22 05:00:04;;;;;;;;;;;;;;;4.00;79.27;99535.45;1693508;83;27519;-63
2022/02/22 05:02:32;;;;;;;;;;;;;;;3.99;79.34;99557.13;1688802;83;26116;-64
2022/02/22 05:04:57;;;;;;;;;;;;;;;3.99;79.47;99566.41;1690751;83;83605;-63
2022/02/22 05:07:23;;;;;;;;;;;;;;;4.00;79.51;99550.03;1690032;83;26211;-63
2022/02/22 05:09:49;;;;;;;;;;;;;;;4.00;79.63;99557.53;1694813;83;83550;-63
2022/02/22 05:12:14;;;;;;;;;;;;;;;4.03;79.70;99556.10;1696370;83;27426;-63
2022/02/22 05:14:40;;;;;;;;;;;;;;;4.01;79.64;99560.59;1691798;83;25782;-63
2022/02/22 05:17:06;;;;;;;;;;;;;;;4.00;79.75;99578.74;1695753;83;83953;-63
2022/02/22 05:19:32;;;;;;;;;;;;;;;3.99;79.91;99592.05;1696281;83;25814;-63
2022/02/22 05:21:57;;;;;;;;;;;;;;;3.98;79.99;99573.95;1691985;83;84708;-64
2022/02/22 05:24:23;;;;;;;;;;;;;;;3.94;80.25;99588.69;1691106;83;26664;-64
2022/02/22 05:26:49;;;;;;;;;;;;;;;3.90;80.35;99595.41;1695172;83;25811;-63
2022/02/22 05:29:14;;;;;;;;;;;;;;;3.89;80.37;99594.14;1696366;83;84279;-64
2022/02/22 05:31:40;;;;;;;;;;;;;;;3.85;80.45;99599.13;1697943;83;25905;-63
2022/02/22 05:34:06;;;;;;;;;;;;;;;3.80;80.47;99605.04;1696723;83;83976;-63
2022/02/22 05:36:32;;;;;;;;;;;;;;;3.73;80.57;99596.42;1699426;83;27490;-63
2022/02/22 05:38:57;;;;;;;;;;;;;;;3.78;80.86;99605.55;1697890;83;84083;-68
2022/02/22 05:41:23;;;;;;;;;;;;;;;3.76;80.84;99607.38;1695788;83;25879;-63
2022/02/22 05:43:49;;;;;;;;;;;;;;;3.78;80.82;99625.42;1699438;83;26015;-63
2022/02/22 05:46:16;;;;;;;;;;;;;;;3.80;80.92;99619.62;1693965;83;83662;-63
2022/02/22 05:48:42;;;;;;;;;;;;;;;3.80;80.91;99627.11;1695473;83;28106;-63
2022/02/22 05:51:08;;;;;;;;;;;;;;;3.79;80.85;99632.46;1688485;83;83758;-63
2022/02/22 05:53:35;;;;;;;;;;;;;;;3.79;80.97;99643.06;1696882;83;25854;-63
2022/02/22 05:56:01;;;;;;;;;;;;;;;3.78;81.06;99650.15;1693668;83;26183;-63
2022/02/22 05:58:27;;;;;;;;;;;;;;;3.76;81.18;99645.81;1687310;83;84310;-64
2022/02/22 06:00:52;;;;;;;;;;;;;;;3.76;81.25;99670.53;1690818;83;27491;-63
2022/02/22 06:03:18;;;;;;;;;;;;;;;3.76;81.33;99659.06;1690984;83;83775;-63
2022/02/22 06:05:44;;;;;;;;;;;;;;;3.74;81.37;99661.76;1656956;83;25760;-63
2022/02/22 06:08:09;;;;;;;;;;;;;;;3.73;81.57;99677.25;1638974;86;26758;-63
2022/02/22 06:10:35;;;;;;;;;;;;;;;3.74;81.29;99671.49;1641403;85;85134;-63
2022/02/22 06:13:01;;;;;;;;;;;;;;;3.72;81.36;99693.20;1640412;85;27875;-64
2022/02/22 06:15:27;;;;;;;;;;;;;;;3.70;81.40;99691.05;1635938;85;83805;-63
2022/02/22 06:17:52;;;;;;;;;;;;;;;3.68;81.46;99687.13;1640197;85;26414;-63
2022/02/22 06:20:18;;;;;;;;;;;;;;;3.67;81.41;99697.31;1641110;85;26044;-63
2022/02/22 06:22:45;;;;;;;;;;;;;;;3.66;81.47;99701.34;1637903;85;83974;-63
2022/02/22 06:25:11;;;;;;;;;;;;;;;3.65;81.68;99698.28;1642034;85;27837;-63
2022/02/22 06:27:51;;;;;;;;;;;;;;;3.62;81.70;99718.24;1642057;86;84494;-63
2022/02/22 06:30:18;;;;;;;;;;;;;;;3.62;81.99;99719.11;1643624;86;25678;-66
2022/02/22 06:32:44;;;;;;;;;;;;;;;3.67;82.16;99709.70;1642912;87;26831;-63
2022/02/22 06:35:10;;;;;;;;;;;;;;;3.74;82.60;99715.22;1642285;86;83622;-64
2022/02/22 06:37:36;;;;;;;;;;;;;;;3.80;82.54;99715.03;1643086;87;28047;-64
2022/02/22 06:40:05;;;;;;;;;;;;;;;3.87;82.62;99720.56;1641912;86;84819;-65
2022/02/22 06:42:32;;;;;;;;;;;;;;;3.92;82.69;99727.91;1643083;87;25722;-65
2022/02/22 06:44:57;;;;;;;;;;;;;;;3.96;82.75;99726.03;1643207;86;27155;-65
2022/02/22 06:47:23;;;;;;;;;;;;;;;3.99;82.84;99721.96;1639202;85;26609;-65
2022/02/22 06:49:49;;;;;;;;;;;;;;;4.02;82.91;99732.47;1640746;85;27445;-64
2022/02/22 06:52:15;;;;;;;;;;;;;;;4.04;82.93;99735.48;1639967;85;83551;-64
2022/02/22 06:54:40;;;;;;;;;;;;;;;4.04;82.96;99729.31;1640363;85;26227;-65
2022/02/22 06:57:08;;;;;;;;;;;;;;;4.05;82.91;99732.38;1637039;85;83946;-65
2022/02/22 06:59:37;;;;;;;;;;;;;;;4.03;82.94;99744.81;1639150;85;25843;-67
2022/02/22 07:02:03;;;;;;;;;;;;;;;4.09;82.94;99748.14;1641726;85;27492;-66
2022/02/22 07:04:29;;;;;;;;;;;;;;;4.11;82.92;99740.14;1640414;85;83717;-66
2022/02/22 07:06:55;;;;;;;;;;;;;;;4.13;83.02;99745.80;1689136;83;26455;-65
2022/02/22 07:09:21;;;;;;;;;;;;;;;4.16;83.01;99756.77;1692181;83;84581;-64
2022/02/22 07:11:46;;;;;;;;;;;;;;;4.20;83.20;99764.59;1696488;83;25928;-65
2022/02/22 07:14:12;;;;;;;;;;;;;;;4.22;83.08;99765.41;1699057;83;28278;-65
2022/02/22 07:16:38;;;;;;;;;;;;;;;4.26;83.13;99765.31;1691256;83;83592;-65
2022/02/22 07:19:03;;;;;;;;;;;;;;;4.27;83.10;99761.74;1691198;83;25830;-66
2022/02/22 07:21:29;;;;;;;;;;;;;;;4.32;83.11;99767.77;1690315;83;83606;-66
2022/02/22 07:23:55;;;;;;;;;;;;;;;4.36;83.10;99772.06;1694426;83;26033;-66
2022/02/22 07:26:21;;;;;;;;;;;;;;;4.41;83.04;99780.73;1694904;83;28231;-66
2022/02/22 07:28:46;;;;;;;;;;;;;;;4.43;83.01;99776.25;1690161;83;83671;-68
2022/02/22 07:31:12;;;;;;;;;;;;;;;4.45;82.98;99783.70;1694042;83;25719;-68
2022/02/22 07:33:39;;;;;;;;;;;;;;;4.48;82.97;99787.59;1693743;83;83832;-67
2022/02/22 07:36:06;;;;;;;;;;;;;;;4.52;82.97;99791.42;1691556;83;26511;-67
2022/02/22 07:38:32;;;;;;;;;;;;;;;4.57;82.99;99808.52;1694022;83;29172;-67
2022/02/22 07:40:58;;;;;;;;;;;;;;;4.57;82.87;99809.84;1688961;83;84758;-66
2022/02/22 07:43:24;;;;;;;;;;;;;;;4.58;82.84;99818.22;1692320;83;26499;-66
2022/02/22 07:45:49;;;;;;;;;;;;;;;4.59;82.77;99808.01;1695402;83;83761;-66
2022/02/22 07:48:15;;;;;;;;;;;;;;;4.64;82.83;99835.73;1693464;83;25744;-66
2022/02/22 07:50:41;;;;;;;;;;;;;;;4.69;82.79;99824.50;1694806;83;29590;-66
2022/02/22 07:53:07;;;;;;;;;;;;;;;4.74;82.84;99821.24;1693791;83;84909;-66
2022/02/22 07:55:32;;;;;;;;;;;;;;;4.74;82.70;99827.88;1694116;83;25760;-66
2022/02/22 07:57:58;;;;;;;;;;;;;;;4.73;82.62;99837.62;1693440;83;84501;-65
2022/02/22 08:00:24;;;;;;;;;;;;;;;4.70;82.57;99861.63;1696732;83;25766;-66
2022/02/22 08:02:54;;;;;;;;;;;;;;;4.64;82.53;99857.83;1691063;83;27573;-65
2022/02/22 08:05:17;;;;;;;;;;;;;;;4.59;82.71;99845.17;1696442;83;83697;-67
2022/02/22 08:07:42;;;;;;;;;;;;;;;4.58;82.65;99862.01;1692040;83;25822;-68
2022/02/22 08:10:08;;;;;;;;;;;;;;;4.60;82.67;99861.95;1689254;83;83707;-66
2022/02/22 08:12:35;;;;;;;;;;;;;;;4.61;82.79;99870.33;1686877;83;25849;-66
2022/02/22 08:15:00;;;;;;;;;;;;;;;4.56;82.85;99878.44;1687187;83;83882;-67
2022/02/22 08:17:26;;;;;;;;;;;;;;;4.55;82.81;99882.01;1690099;83;25910;-66
2022/02/22 08:19:51;;;;;;;;;;;;;;;4.53;82.77;99881.19;1689922;83;25333;-67
2022/02/22 08:22:17;;;;;;;;;;;;;;;4.52;82.82;99891.39;1684652;83;83584;-66
2022/02/22 08:24:43;;;;;;;;;;;;;;;4.53;82.81;99894.00;1686044;83;25856;-66
2022/02/22 08:27:09;;;;;;;;;;;;;;;4.53;82.72;99899.77;1683549;83;84701;-69
2022/02/22 08:29:35;;;;;;;;;;;;;;;4.53;82.66;99905.94;1685331;83;25902;-69
2022/02/22 08:32:01;;;;;;;;;;;;;;;4.52;82.61;99908.18;1687075;83;25741;-67
2022/02/22 08:34:27;;;;;;;;;;;;;;;4.52;82.47;99908.64;1688565;83;83720;-68
2022/02/22 08:36:52;;;;;;;;;;;;;;;4.53;82.42;99917.87;1687102;83;25712;-65
2022/02/22 08:39:18;;;;;;;;;;;;;;;4.55;82.24;99930.64;1685274;83;84649;-65
2022/02/22 08:41:44;;;;;;;;;;;;;;;4.55;81.99;99921.36;1684063;83;27188;-69
2022/02/22 08:44:10;;;;;;;;;;;;;;;4.57;81.92;99934.58;1685537;83;25851;-67
2022/02/22 08:46:36;;;;;;;;;;;;;;;4.60;81.76;99943.77;1680440;83;84487;-70
2022/02/22 08:49:03;;;;;;;;;;;;;;;4.61;81.46;99934.90;1687854;83;26558;-69
2022/02/22 08:51:29;;;;;;;;;;;;;;;4.63;81.42;99954.30;1686084;83;83923;-76
2022/02/22 08:53:55;;;;;;;;;;;;;;;4.64;80.90;99948.08;1683239;83;25824;-68
2022/02/22 08:56:20;;;;;;;;;;;;;;;4.63;79.96;99956.95;1686545;83;25944;-67
2022/02/22 08:58:46;;;;;;;;;;;;;;;4.65;80.28;99951.14;1686320;83;84353;-70
2022/02/22 09:01:12;;;;;;;;;;;;;;;4.72;80.08;99943.41;1688865;83;25697;-68
2022/02/22 09:03:37;;;;;;;;;;;;;;;4.76;80.10;99974.25;1688165;83;83993;-67
2022/02/22 09:06:03;;;;;;;;;;;;;;;4.78;79.44;99964.45;1686745;83;25877;-67
2022/02/22 09:08:29;;;;;;;;;;;;;;;4.81;79.37;99951.09;1679499;84;25785;-67
2022/02/22 09:10:55;;;;;;;;;;;;;;;4.84;79.35;99956.30;1679055;84;83681;-67
2022/02/22 09:13:21;;;;;;;;;;;;;;;4.86;79.04;99962.89;1679847;84;25727;-67
2022/02/22 09:15:49;;;;;;;;;;;;;;;4.87;78.73;99961.52;1678387;84;84487;-67
2022/02/22 09:18:16;;;;;;;;;;;;;;;4.89;78.14;99967.65;1678523;84;26539;-68
2022/02/22 09:20:42;;;;;;;;;;;;;;;4.84;78.20;100001.44;1680119;84;25898;-68
2022/02/22 09:23:08;;;;;;;;;;;;;;;4.80;78.13;100006.43;1673839;84;83791;-69
2022/02/22 09:25:35;;;;;;;;;;;;;;;4.77;77.91;100003.87;1676835;84;25876;-68
2022/02/22 09:28:01;;;;;;;;;;;;;;;4.62;77.81;100012.73;1677068;84;83894;-69
2022/02/22 09:30:28;;;;;;;;;;;;;;;4.50;77.90;100001.56;1681976;84;25764;-69
2022/02/22 09:32:54;;;;;;;;;;;;;;;4.38;78.04;100015.64;1676299;84;25881;-67
2022/02/22 09:35:24;;;;;;;;;;;;;;;4.27;78.16;100025.67;1674750;84;83910;-70
2022/02/22 09:37:49;;;;;;;;;;;;;;;4.20;78.38;100011.26;1676785;84;25816;-66
2022/02/22 09:40:15;;;;;;;;;;;;;;;4.21;78.56;100025.39;1675692;84;84644;-68
2022/02/22 09:42:41;;;;;;;;;;;;;;;4.26;78.62;100026.59;1678843;84;26151;-66
2022/02/22 09:45:09;;;;;;;;;;;;;;;4.29;78.65;100043.75;1677600;83;84077;-68
2022/02/22 09:47:35;;;;;;;;;;;;;;;4.31;78.65;100021.57;1680871;84;26788;-68
2022/02/22 09:50:03;;;;;;;;;;;;;;;4.36;78.76;100053.28;1679545;83;25743;-67
2022/02/22 09:52:28;;;;;;;;;;;;;;;4.38;78.75;100059.42;1689170;84;83716;-68
2022/02/22 09:54:54;;;;;;;;;;;;;;;4.35;78.71;100052.41;1702169;84;25691;-67
2022/02/22 09:57:20;;;;;;;;;;;;;;;4.32;78.61;100052.49;1700912;83;83958;-66
2022/02/22 09:59:46;;;;;;;;;;;;;;;4.33;78.79;100062.65;1702041;83;26627;-67
2022/02/22 10:02:13;;;;;;;;;;;;;;;4.34;78.72;100066.59;1701816;83;25263;-70
2022/02/22 10:04:47;;;;;;;;;;;;;;;4.36;78.66;100070.53;1700901;83;83983;-68
2022/02/22 10:07:13;;;;;;;;;;;;;;;4.37;78.65;100073.59;1709554;83;25696;-67
2022/02/22 10:09:55;;;;;;;;;;;;;;;4.41;78.61;100087.20;1714693;83;84150;-68
2022/02/22 10:12:29;;;;;;;;;;;;;;;4.43;78.17;100078.73;1715463;83;26061;-67
2022/02/22 10:14:56;;;;;;;;;;;;;;;4.45;78.19;100084.41;1714856;83;25608;-67
2022/02/22 10:17:23;;;;;;;;;;;;;;;4.48;77.86;100088.31;1714107;82;83741;-68
2022/02/22 10:19:57;;;;;;;;;;;;;;;4.53;77.73;100089.05;1715814;83;25612;-67
2022/02/22 10:22:25;;;;;;;;;;;;;;;4.55;77.66;100082.38;1714340;82;84637;-69
2022/02/22 10:24:54;;;;;;;;;;;;;;;4.58;77.59;100090.71;1715428;82;26897;-69
2022/02/22 10:27:20;;;;;;;;;;;;;;;4.59;77.53;100093.32;1711830;83;84055;-69
2022/02/22 10:29:46;;;;;;;;;;;;;;;4.61;77.22;100102.57;1715686;83;27656;-69
2022/02/22 10:32:13;;;;;;;;;;;;;;;4.59;77.03;100123.84;1715366;83;25631;-68
2022/02/22 10:34:39;;;;;;;;;;;;;;;4.58;76.83;100109.29;1714522;82;83759;-68
2022/02/22 10:37:05;;;;;;;;;;;;;;;4.52;76.82;100131.56;1715504;83;25981;-67
2022/02/22 10:39:31;;;;;;;;;;;;;;;4.48;76.85;100139.19;1714545;82;83941;-67
2022/02/22 10:41:57;;;;;;;;;;;;;;;4.37;76.82;100134.62;1715487;83;27408;-68
2022/02/22 10:44:36;;;;;;;;;;;;;;;4.28;76.94;100139.70;1715437;83;25751;-67
2022/02/22 10:46:59;;;;;;;;;;;;;;;4.23;77.12;100134.52;1694729;82;83695;-68
2022/02/22 10:49:30;;;;;;;;;;;;;;;4.21;77.15;100136.34;1693274;83;26081;-66
2022/02/22 10:51:58;;;;;;;;;;;;;;;4.17;77.27;100138.66;1696244;83;84004;-66
2022/02/22 10:54:25;;;;;;;;;;;;;;;4.23;77.45;100142.94;1676369;83;27454;-66
2022/02/22 10:56:53;;;;;;;;;;;;;;;4.28;77.45;100144.14;1698960;83;25821;-67
2022/02/22 10:59:20;;;;;;;;;;;;;;;4.28;77.46;100146.34;1695571;83;83870;-66
2022/02/22 11:01:47;;;;;;;;;;;;;;;4.36;77.79;100139.51;1695807;83;25988;-67
2022/02/22 11:04:13;;;;;;;;;;;;;;;4.43;77.77;100149.92;1694114;83;85114;-66
2022/02/22 11:06:39;;;;;;;;;;;;;;;4.42;77.76;100159.25;1690440;83;27513;-68
2022/02/22 11:09:05;;;;;;;;;;;;;;;4.46;77.88;100156.93;1678942;84;84123;-66
2022/02/22 11:11:51;;;;;;;;;;;;;;;4.50;77.90;100167.42;1667641;84;26127;-68
2022/02/22 11:14:27;;;;;;;;;;;;;;;4.53;78.00;100164.69;1677632;84;26676;-68
2022/02/22 11:16:55;;;;;;;;;;;;;;;4.56;77.88;100175.69;1674491;84;84017;-67
2022/02/22 11:19:38;;;;;;;;;;;;;;;4.56;78.06;100182.31;1679827;83;27380;-68
2022/02/22 11:22:13;;;;;;;;;;;;;;;4.57;78.10;100186.72;1679613;83;85530;-68
2022/02/22 11:24:46;;;;;;;;;;;;;;;4.60;78.19;100187.96;1680284;83;25928;-68
2022/02/22 11:27:24;;;;;;;;;;;;;;;4.63;78.09;100205.59;1678855;84;84077;-67
2022/02/22 11:30:12;;;;;;;;;;;;;;;4.49;77.98;100217.44;1653944;84;25908;-67
2022/02/22 11:32:41;;;;;;;;;;;;;;;4.41;78.13;100203.94;1679650;84;28044;-67
2022/02/22 11:35:15;;;;;;;;;;;;;;;4.41;78.29;100218.54;1678015;84;84217;-68
2022/02/22 11:37:41;;;;;;;;;;;;;;;4.34;78.20;100214.30;1680721;84;26479;-68
2022/02/22 11:40:08;;;;;;;;;;;;;;;4.28;78.28;100208.69;1677678;83;83948;-67
2022/02/22 11:42:34;;;;;;;;;;;;;;;4.24;78.41;100218.50;1679394;83;25730;-69
2022/02/22 11:45:03;;;;;;;;;;;;;;;4.32;78.51;100237.34;1672337;84;83951;-70
2022/02/22 11:47:30;;;;;;;;;;;;;;;4.31;78.46;100220.55;1677361;83;26696;-67
2022/02/22 11:49:57;;;;;;;;;;;;;;;4.28;78.56;100229.03;1677714;84;25739;-74
2022/02/22 11:52:38;;;;;;;;;;;;;;;4.28;78.56;100232.56;1676369;83;83880;-69
2022/02/22 11:55:07;;;;;;;;;;;;;;;4.27;78.62;100236.58;1678228;84;25816;-65
2022/02/22 11:57:47;;;;;;;;;;;;;;;4.36;78.82;100246.97;1673507;84;84860;-69
2022/02/22 12:03:11;;;;;;;;;;;;;;;4.33;78.71;100265.61;1700374;81;83919;-68
2022/02/22 12:05:39;;;;;;;;;;;;;;;4.27;78.78;100256.02;1701570;82;26075;-70
2022/02/22 12:08:14;;;;;;;;;;;;;;;4.28;78.80;100264.84;1696679;83;26465;-70
2022/02/22 12:10:53;;;;;;;;;;;;;;;4.27;78.68;100253.81;1700930;82;83760;-67
2022/02/22 12:13:22;;;;;;;;;;;;;;;4.27;78.61;100257.80;1699997;82;25766;-68
2022/02/22 12:15:49;;;;;;;;;;;;;;;4.24;78.47;100254.31;1710715;81;83746;-67
2022/02/22 12:18:25;;;;;;;;;;;;;;;4.23;78.51;100262.30;1707931;81;26001;-67
2022/02/22 12:20:53;;;;;;;;;;;;;;;4.21;78.29;100253.05;1700149;81;25801;-67
2022/02/22 12:23:21;;;;;;;;;;;;;;;4.16;78.23;100270.86;1709004;82;83738;-67
2022/02/22 12:25:50;;;;;;;;;;;;;;;4.10;78.33;100273.66;1691401;82;26540;-67
2022/02/22 12:28:16;;;;;;;;;;;;;;;4.14;78.40;100283.73;1686761;82;84756;-67
2022/02/22 12:30:43;;;;;;;;;;;;;;;4.18;78.49;100276.12;1705058;81;26097;-66
2022/02/22 12:33:08;;;;;;;;;;;;;;;4.30;78.53;100287.78;1701292;82;84352;-66
2022/02/22 12:35:37;;;;;;;;;;;;;;;4.36;78.34;100299.58;1702082;81;26994;-66
2022/02/22 12:38:20;;;;;;;;;;;;;;;4.44;78.12;100290.11;1708656;81;25793;-66
2022/02/22 12:40:48;;;;;;;;;;;;;;;4.47;77.60;100294.89;1705572;81;83742;-66
2022/02/22 12:43:14;;;;;;;;;;;;;;;4.46;77.65;100321.01;1663826;83;26058;-66
2022/02/22 12:45:49;;;;;;;;;;;;;;;4.44;77.35;100300.27;1677955;83;84738;-66
2022/02/22 12:48:10;;;;;;;;;;;;;;;4.42;77.36;100294.58;1705517;81;27481;-67
2022/02/22 12:50:36;;;;;;;;;;;;;;;4.43;77.32;100310.92;1702666;82;26073;-66
2022/02/22 12:53:03;;;;;;;;;;;;;;;4.43;77.00;100315.77;1703727;81;83799;-66
2022/02/22 12:55:29;;;;;;;;;;;;;;;4.38;76.78;100312.35;1709111;81;27019;-67
2022/02/22 12:58:06;;;;;;;;;;;;;;;4.42;75.97;100321.11;1703978;81;83859;-67